Řízení letového provozu České republiky  
Aktualizace dat:  25.05.2024 07:21:39 UTC English version
   METEO Zobrazení stránky:  25.05.2024 07:22:30 UTC  
vysvětlivky
METAR EDAC 250650Z AUTO 22005KT 180V250 9999 // SCT008/// 15/13 Q1017=
METAR EDDB 250650Z AUTO 19006KT 150V220 9999 SCT009 BKN014 17/15 Q1017 BECMG SCT012 BKN015=
METAR EDDC 250650Z AUTO 20005KT 160V230 CAVOK 17/14 Q1018 NOSIG=
METAR EDDE 250650Z AUTO 20006KT CAVOK 15/12 Q1017 NOSIG=
METAR EDDF 250650Z AUTO 17003KT 140V270 9999 BKN005 OVC011 14/13 Q1018 BECMG BKN012=
METAR EDDM 250650Z AUTO 16003KT 130V200 9999 -RA FEW048 11/10 Q1019 NOSIG=
METAR EDDN 250650Z AUTO VRB02KT 9999 FEW011 SCT020 16/11 Q1018 NOSIG=
METAR EDDP 250650Z AUTO 21006KT 170V240 1800 1100 R26L/1700U R26R/1900N BR BKN002 14/14 Q1017 TEMPO 2500 BR=
METAR EDQM 250650Z 19004KT 150V250 9999 FEW005 SCT008 OVC011 14/13 Q1018=
METAR EPBY 250700Z 09005KT 060V130 CAVOK 18/15 Q1019=
METAR EPGD 250700Z 18006KT 140V200 CAVOK 18/14 Q1020=
METAR EPKK 250700Z VRB02KT CAVOK 19/13 Q1020=
METAR EPKT 250700Z 12005KT CAVOK 18/14 Q1020=
METAR EPLB 250700Z 16005KT 120V190 CAVOK 21/12 Q1021=
METAR EPLL 250700Z VRB03KT CAVOK 18/14 Q1020=
METAR EPMO 250700Z 13005KT 090V170 CAVOK 22/13 Q1020=
METAR EPPO 250700Z 16005KT 8000 BKN002 18/15 Q1019=
METAR EPRZ 250700Z 14004KT 100V190 CAVOK 20/13 Q1021=
METAR EPWA 250700Z 14007KT 110V180 CAVOK 21/14 Q1020 NOSIG=
METAR EPWR 250700Z 17008KT 140V200 9999 FEW027 21/14 Q1019=
METAR LHBP 250700Z 10005KT 060V130 9999 FEW012 19/16 Q1020 NOSIG=
METAR LHPR 250645Z AUTO 12008KT CAVOK 20/15 Q1019 NOSIG=
METAR LHSM 250645Z AUTO VRB02KT 9999 BKN037 20/15 Q1018 NOSIG=
SPECI LKBC 250710Z AUTO 09004KT 040V120 //// // BKN007 OVC011 14/13 Q1018=
METAR LKCR 250700Z AUTO 11005KT 9999 BKN029 BKN097 17/14 Q1018=
METAR LKCS 250700Z AUTO VRB02KT 9999 FEW003/// SCT005/// 13/13 Q1018=
METAR LKCV 250700Z VRB02KT 9999 FEW019 SCT100 18/15 Q1018 NOSIG RMK BLU BLU=
METAR LKKB 250700Z VRB02KT 9999 FEW015 SCT110 17/13 Q1018 NOSIG RMK BLU BLU=
METAR LKKU 250700Z VRB02KT 9999 FEW040 18/14 Q1019=
METAR LKKV 250700Z 31004KT 270V330 9999 FEW005 SCT010 12/12 Q1018=
METAR LKLN 250700Z AUTO VRB02KT 9999 FEW004 BKN006 13/12 Q1019=
METAR LKMT 250700Z 26003KT 230V320 CAVOK 17/14 Q1019 NOSIG=
METAR LKNA 250700Z 14008KT 9000 BKN004 OVC012 15/13 Q1019 RMK BLACK=
METAR LKPD 250700Z 09006KT 060V140 CAVOK 19/15 Q1018 NOSIG RMK BLU BLU=
METAR LKPJ 250700Z AUTO VRB02KT 9999 FEW013/// SCT082/// 18/14 Q1019=
METAR LKPR 250700Z VRB02KT 0200 R24/0325N R30/0375N FG VV002 13/12 Q1018 NOSIG=
METAR LKTB 250700Z 11006KT 9999 -SHRA SCT016TCU 17/14 Q1019 NOSIG=
METAR LKTH 250700Z AUTO 18006KT 090V230 9999 OVC018 16/12 Q1019=
METAR LKVO NIL
METAR LOWG 250650Z AUTO VRB03KT 9999 NCD 17/12 Q1018 NOSIG=
METAR LOWI 250650Z 27004KT 240V300 9999 SCT015 BKN030 13/10 Q1018 NOSIG=
METAR LOWK 250650Z AUTO VRB01KT 9999 NCD 15/10 Q1019 NOSIG=
METAR LOWL 250650Z AUTO 31005KT 9999 FEW014 BKN042 14/12 Q1019 TEMPO BKN014=
METAR LOWS 250650Z AUTO 01004KT 330V040 9999 SCT025 BKN043 13/10 Q1019 NOSIG=
METAR LOWW 250650Z VRB02KT 9999 -SHRA FEW003 BKN006 FEW040CB 16/14 Q1019 BECMG 16010KT BKN010=
METAR LOXT 250650Z 00000KT 25KM FEW014SC BKN090AC 16/13 Q1019 RMK BKN=
METAR LOXZ 250650Z VRB02KT 9999 FEW015 BKN200 13/10 Q1019 NOSIG=
METAR LZIB 250700Z 06005KT 040V120 9999 BKN011 BKN038 18/15 Q1019 NOSIG=
METAR LZKZ 250700Z 06003KT 360V120 CAVOK 19/14 Q1021 NOSIG=
METAR LZMC 250700Z 18010KT 9999 FEW010 BKN020 19/14 Q1020=
METAR LZPP 250700Z 27005KT 250V310 9999 FEW021 SCT035 18/15 Q1020=
METAR LZSL 250700Z VRB02KT 9999 FEW038 17/12 Q1021=
METAR LZTT 250700Z VRB02KT 9999 FEW005 16/11 Q1022 NOSIG=
METAR LZZI 250700Z 07004KT 020V120 9999 FEW033 17/13 Q1020=